createdAt,value
2023-06-11T00:01:06.933Z,65.65
2023-06-11T00:03:42.260Z,65.50
2023-06-11T00:06:17.984Z,65.83
2023-06-11T00:08:53.476Z,65.75
2023-06-11T00:11:25.517Z,65.93
2023-06-11T00:13:54.950Z,66.51
2023-06-11T00:16:24.546Z,66.95
2023-06-11T00:18:52.316Z,66.40
2023-06-11T00:21:25.188Z,66.81
2023-06-11T00:23:57.056Z,67.16
2023-06-11T00:26:28.548Z,67.53
2023-06-11T00:28:59.572Z,68.32
2023-06-11T00:31:28.822Z,68.99
2023-06-11T00:33:57.572Z,68.95
2023-06-11T00:36:30.600Z,69.19
2023-06-11T00:39:04.120Z,69.35
2023-06-11T00:41:31.982Z,69.26
2023-06-11T00:44:08.968Z,69.43
2023-06-11T00:46:39.088Z,68.67
2023-06-11T00:49:12.561Z,68.47
2023-06-11T00:51:42.649Z,67.79
2023-06-11T00:54:14.658Z,67.15
2023-06-11T00:56:44.937Z,66.56
2023-06-11T00:59:13.406Z,67.66
2023-06-11T01:04:48.397Z,68.28
2023-06-11T01:07:17.341Z,68.19
2023-06-11T01:09:46.653Z,68.82
2023-06-11T01:12:14.456Z,69.36
2023-06-11T01:14:43.735Z,69.89
2023-06-11T01:17:18.836Z,70.15
2023-06-11T01:19:57.857Z,70.21
2023-06-11T01:22:34.671Z,69.79
2023-06-11T01:25:18.310Z,70.33
2023-06-11T01:28:15.404Z,70.78
2023-06-11T01:30:44.552Z,71.41
2023-06-11T01:33:15.088Z,71.19
2023-06-11T01:35:48.175Z,71.46
2023-06-11T01:38:19.061Z,72.12
2023-06-11T01:40:52.237Z,72.46
2023-06-11T01:43:21.451Z,73.15
2023-06-11T01:45:49.208Z,72.20
2023-06-11T01:48:21.071Z,71.48
2023-06-11T01:50:51.487Z,71.01
2023-06-11T01:53:23.649Z,70.73
2023-06-11T01:55:52.348Z,70.18
2023-06-11T01:58:25.470Z,69.68
2023-06-11T02:00:55.712Z,69.31
2023-06-11T02:03:34.778Z,69.35
2023-06-11T02:06:05.375Z,69.20
2023-06-11T02:08:33.230Z,70.40
2023-06-11T02:11:01.403Z,69.52
2023-06-11T02:13:31.877Z,69.15
2023-06-11T02:16:00.629Z,68.93
2023-06-11T02:18:30.864Z,68.69
2023-06-11T02:21:00.221Z,68.38
2023-06-11T02:23:32.112Z,67.93
2023-06-11T02:26:00.155Z,68.38
2023-06-11T02:28:34.313Z,67.83
2023-06-11T02:31:02.124Z,67.61
2023-06-11T02:33:34.079Z,68.59
2023-06-11T02:36:01.922Z,68.57
2023-06-11T02:38:29.662Z,69.23
2023-06-11T02:41:07.654Z,68.83
2023-06-11T02:43:47.228Z,69.11
2023-06-11T02:46:20.840Z,69.50
2023-06-11T02:48:53.670Z,69.45
2023-06-11T02:51:24.199Z,69.54
2023-06-11T02:53:58.492Z,69.40
2023-06-11T02:56:27.443Z,69.88
2023-06-11T02:58:57.371Z,70.12
2023-06-11T03:01:25.265Z,70.56
2023-06-11T03:03:54.711Z,69.68
2023-06-11T03:06:22.712Z,69.81
2023-06-11T03:08:50.790Z,69.80
2023-06-11T03:11:21.155Z,70.44
2023-06-11T03:13:48.983Z,71.42
2023-06-11T03:16:18.159Z,71.97
2023-06-11T03:18:46.056Z,71.91
2023-06-11T03:21:14.962Z,71.50
2023-06-11T03:23:43.872Z,71.76
2023-06-11T03:26:13.312Z,71.05
2023-06-11T03:28:41.055Z,71.07
2023-06-11T03:31:08.902Z,70.75
2023-06-11T03:33:38.098Z,71.63
2023-06-11T03:36:09.392Z,72.67
2023-06-11T03:38:39.771Z,73.72
2023-06-11T03:41:13.973Z,73.80
2023-06-11T03:43:52.451Z,74.60
2023-06-11T03:46:24.890Z,74.75
2023-06-11T03:48:57.029Z,75.32
2023-06-11T03:51:30.756Z,75.23
2023-06-11T03:53:58.611Z,76.07
2023-06-11T03:56:26.769Z,75.83
2023-06-11T03:58:54.880Z,76.03
2023-06-11T04:01:23.078Z,76.17
2023-06-11T04:03:51.422Z,75.33
2023-06-11T04:06:21.325Z,75.45
2023-06-11T04:08:55.013Z,72.98
2023-06-11T04:11:24.337Z,73.13
2023-06-11T04:13:53.442Z,72.82
2023-06-11T04:16:22.819Z,72.37
2023-06-11T04:18:52.137Z,70.87
2023-06-11T04:21:21.721Z,71.04
2023-06-11T04:24:09.277Z,70.89
2023-06-11T04:26:39.233Z,70.53
2023-06-11T04:29:09.467Z,70.24
2023-06-11T04:31:39.259Z,69.70
2023-06-11T04:34:08.311Z,70.75
2023-06-11T04:36:41.254Z,71.55
2023-06-11T04:39:10.912Z,70.99
2023-06-11T04:41:38.940Z,71.08
2023-06-11T04:44:07.069Z,71.47
2023-06-11T04:46:40.563Z,71.31
2023-06-11T04:49:23.260Z,71.25
2023-06-11T04:51:53.997Z,70.36
2023-06-11T04:54:22.496Z,69.77
2023-06-11T04:56:50.687Z,70.31
2023-06-11T04:59:18.913Z,70.80
2023-06-11T05:01:48.651Z,70.73
2023-06-11T05:04:16.722Z,70.52
2023-06-11T05:06:46.795Z,70.30
2023-06-11T05:09:17.131Z,70.49
2023-06-11T05:11:46.239Z,70.19
2023-06-11T05:14:18.081Z,70.61
2023-06-11T05:16:47.875Z,69.55
2023-06-11T05:19:18.771Z,69.31
2023-06-11T05:21:48.070Z,69.39
2023-06-11T05:24:21.264Z,68.45
2023-06-11T05:26:49.572Z,68.67
2023-06-11T05:29:17.331Z,67.86
2023-06-11T05:31:52.242Z,68.16
2023-06-11T05:34:27.288Z,68.12
2023-06-11T05:36:55.334Z,68.07
2023-06-11T05:39:30.065Z,67.68
2023-06-11T05:41:59.214Z,67.04
2023-06-11T05:44:30.513Z,67.78
2023-06-11T05:47:02.498Z,67.23
2023-06-11T05:49:36.607Z,67.66
2023-06-11T05:52:04.516Z,67.33
2023-06-11T05:54:36.227Z,66.74
2023-06-11T05:57:04.374Z,65.53
2023-06-11T05:59:32.180Z,64.35
2023-06-11T06:02:00.926Z,64.90
2023-06-11T06:04:37.829Z,65.47
2023-06-11T06:07:11.844Z,64.29
2023-06-11T06:09:41.822Z,64.57
2023-06-11T06:12:11.483Z,64.04
2023-06-11T06:14:39.319Z,64.00
2023-06-11T06:17:07.435Z,64.38
2023-06-11T06:19:35.180Z,63.83
2023-06-11T06:22:05.609Z,63.24
2023-06-11T06:24:33.752Z,64.47
2023-06-11T06:27:06.523Z,64.32
2023-06-11T06:29:43.007Z,64.41
2023-06-11T06:32:10.938Z,64.01
2023-06-11T06:34:39.301Z,65.01
2023-06-11T06:37:07.047Z,65.43
2023-06-11T06:39:39.795Z,64.19
2023-06-11T06:42:09.562Z,63.12
2023-06-11T06:44:37.297Z,63.26
2023-06-11T06:47:08.125Z,61.70
2023-06-11T06:49:44.242Z,61.68
2023-06-11T06:52:14.961Z,61.51
2023-06-11T06:54:52.843Z,61.91
2023-06-11T06:57:26.247Z,62.76
2023-06-11T06:59:54.125Z,63.66
2023-06-11T07:02:24.748Z,64.07
2023-06-11T07:04:52.815Z,64.01
2023-06-11T07:07:23.595Z,63.54
2023-06-11T07:10:02.005Z,63.01
2023-06-11T07:12:35.796Z,63.30
2023-06-11T07:15:08.926Z,63.21
2023-06-11T07:17:40.031Z,62.60
2023-06-11T07:20:09.892Z,63.05
2023-06-11T07:22:38.605Z,62.72
2023-06-11T07:25:07.873Z,63.36
2023-06-11T07:27:37.561Z,62.39
2023-06-11T07:30:09.985Z,61.87
2023-06-11T07:32:43.338Z,60.80
2023-06-11T07:35:12.664Z,60.97
2023-06-11T07:37:42.147Z,60.10
2023-06-11T07:40:16.418Z,60.77
2023-06-11T07:42:46.317Z,60.80
2023-06-11T07:45:14.571Z,60.37
2023-06-11T07:47:43.001Z,60.54
2023-06-11T07:50:12.230Z,59.96
2023-06-11T07:52:42.850Z,60.30
2023-06-11T07:55:11.357Z,60.15
2023-06-11T07:57:42.256Z,59.56
2023-06-11T08:00:14.211Z,59.58
2023-06-11T08:02:42.780Z,59.42
2023-06-11T08:05:19.008Z,58.36
2023-06-11T08:07:49.136Z,57.81
2023-06-11T08:10:17.222Z,57.77
2023-06-11T08:12:45.163Z,58.34
2023-06-11T08:15:16.652Z,57.36
2023-06-11T08:17:47.590Z,56.38
2023-06-11T08:20:17.691Z,55.83
2023-06-11T08:22:46.178Z,55.48
2023-06-11T08:25:24.746Z,56.42
2023-06-11T08:27:53.059Z,54.92
2023-06-11T08:30:23.377Z,55.60
2023-06-11T08:32:51.491Z,54.51
2023-06-11T08:35:19.491Z,55.15
2023-06-11T08:37:47.496Z,53.30
2023-06-11T08:40:21.159Z,52.09
2023-06-11T08:42:50.748Z,53.44
2023-06-11T08:45:24.706Z,54.52
2023-06-11T08:47:55.172Z,53.54
2023-06-11T08:50:26.122Z,53.84
2023-06-11T08:52:54.324Z,53.37
2023-06-11T08:55:22.217Z,53.50
2023-06-11T08:57:54.024Z,53.51
2023-06-11T09:00:22.211Z,52.56
2023-06-11T09:02:52.188Z,51.91
2023-06-11T09:05:20.074Z,52.35
2023-06-11T09:07:53.981Z,52.38
2023-06-11T09:10:22.611Z,52.64
2023-06-11T09:12:50.902Z,53.56
2023-06-11T09:15:21.580Z,52.89
2023-06-11T09:17:58.602Z,51.51
2023-06-11T09:20:26.453Z,51.36
2023-06-11T09:22:57.188Z,50.75
2023-06-11T09:25:28.425Z,50.67
2023-06-11T09:27:58.876Z,49.56
2023-06-11T09:30:30.038Z,51.18
2023-06-11T09:32:59.293Z,49.92
2023-06-11T09:35:27.120Z,49.22
2023-06-11T09:38:00.540Z,50.86
2023-06-11T09:40:42.616Z,50.86
2023-06-11T09:43:13.900Z,50.59
2023-06-11T09:45:55.922Z,50.27
2023-06-11T09:48:27.135Z,50.51
2023-06-11T09:51:02.120Z,47.85
2023-06-11T09:53:33.210Z,48.71
2023-06-11T09:56:12.796Z,48.46
2023-06-11T09:58:45.583Z,47.44
2023-06-11T10:01:16.406Z,46.92
2023-06-11T10:03:49.427Z,45.87
2023-06-11T10:06:23.439Z,46.05
2023-06-11T10:08:51.950Z,44.86
2023-06-11T10:11:23.270Z,45.76
2023-06-11T10:14:10.423Z,45.69
2023-06-11T10:16:38.973Z,44.24
2023-06-11T10:19:12.603Z,44.87
2023-06-11T10:21:48.305Z,44.34
2023-06-11T10:24:23.402Z,42.76
2023-06-11T10:27:13.743Z,41.38
2023-06-11T10:29:46.672Z,41.31
2023-06-11T10:32:22.239Z,40.90
2023-06-11T10:34:56.029Z,41.40
2023-06-11T10:37:31.023Z,41.34
2023-06-11T10:39:59.175Z,40.99
2023-06-11T10:42:29.879Z,40.89
2023-06-11T10:45:10.838Z,40.98
2023-06-11T10:47:46.268Z,40.14
2023-06-11T10:50:16.589Z,40.31
2023-06-11T10:52:51.506Z,40.11
2023-06-11T10:55:19.724Z,41.80
2023-06-11T10:57:47.821Z,41.68
2023-06-11T11:00:19.101Z,41.02
2023-06-11T11:02:53.187Z,40.97
2023-06-11T11:05:26.103Z,41.04
2023-06-11T11:08:01.271Z,40.27
2023-06-11T11:10:31.422Z,39.32
2023-06-11T11:12:59.729Z,38.06
2023-06-11T11:15:29.285Z,38.51
2023-06-11T11:18:00.292Z,39.67
2023-06-11T11:20:31.459Z,38.43
2023-06-11T11:23:02.229Z,39.35
2023-06-11T11:25:31.197Z,38.13
2023-06-11T11:27:59.429Z,39.23
2023-06-11T11:30:30.928Z,39.43
2023-06-11T11:32:59.506Z,38.69
2023-06-11T11:35:30.354Z,38.05
2023-06-11T11:38:09.592Z,38.45
2023-06-11T11:40:44.627Z,37.87
2023-06-11T11:43:13.866Z,40.34
2023-06-11T11:45:48.649Z,40.35
2023-06-11T11:48:17.595Z,39.70
2023-06-11T11:50:53.777Z,39.30
2023-06-11T11:53:30.512Z,39.45
2023-06-11T11:56:05.897Z,39.02
2023-06-11T11:58:45.851Z,40.00
2023-06-11T12:01:33.202Z,38.60
2023-06-11T12:04:14.172Z,39.19
2023-06-11T12:06:43.384Z,38.72
2023-06-11T12:09:13.999Z,38.09
2023-06-11T12:11:56.391Z,39.02
2023-06-11T12:14:28.327Z,37.76
2023-06-11T12:16:58.742Z,36.01
2023-06-11T12:19:29.781Z,35.97
2023-06-11T12:22:01.944Z,35.98
2023-06-11T12:24:30.440Z,35.67
2023-06-11T12:27:05.295Z,36.52
2023-06-11T12:29:36.661Z,36.78
2023-06-11T12:32:06.849Z,35.91
2023-06-11T12:34:34.744Z,36.18
2023-06-11T12:37:04.067Z,35.69
2023-06-11T12:39:36.980Z,36.03
2023-06-11T12:42:05.041Z,35.68
2023-06-11T12:44:56.246Z,35.77
2023-06-11T12:47:27.218Z,36.63
2023-06-11T12:50:02.959Z,35.89
2023-06-11T12:52:32.325Z,35.48
2023-06-11T12:55:00.176Z,35.36
2023-06-11T12:57:30.416Z,34.79
2023-06-11T13:00:04.555Z,34.12
2023-06-11T13:02:38.846Z,35.00
2023-06-11T13:05:09.019Z,34.59
2023-06-11T13:07:45.113Z,35.11
2023-06-11T13:10:13.589Z,36.18
2023-06-11T13:12:47.891Z,36.11
2023-06-11T13:15:18.781Z,35.36
2023-06-11T13:17:52.401Z,34.78
2023-06-11T13:20:23.891Z,35.36
2023-06-11T13:22:53.458Z,35.80
2023-06-11T13:25:21.596Z,35.96
2023-06-11T13:27:50.305Z,35.34
2023-06-11T13:30:18.342Z,35.48
2023-06-11T13:32:46.907Z,35.92
2023-06-11T13:35:17.136Z,36.15
2023-06-11T13:37:52.281Z,35.38
2023-06-11T13:40:22.100Z,35.22
2023-06-11T13:42:52.533Z,35.88
2023-06-11T13:45:25.472Z,35.20
2023-06-11T13:47:54.792Z,34.81
2023-06-11T13:50:24.011Z,35.35
2023-06-11T13:52:51.926Z,36.01
2023-06-11T13:55:24.507Z,35.46
2023-06-11T13:57:54.317Z,35.10
2023-06-11T14:00:28.342Z,35.80
2023-06-11T14:02:56.622Z,35.95
2023-06-11T14:05:24.699Z,34.36
2023-06-11T14:07:56.758Z,34.92
2023-06-11T14:10:28.831Z,34.90
2023-06-11T14:13:02.282Z,35.03
2023-06-11T14:15:37.293Z,35.82
2023-06-11T14:18:10.816Z,34.35
2023-06-11T14:20:39.082Z,35.08
2023-06-11T14:23:11.068Z,35.83
2023-06-11T14:25:40.359Z,35.90
2023-06-11T14:28:11.323Z,35.34
2023-06-11T14:30:59.470Z,35.80
2023-06-11T14:33:30.307Z,35.46
2023-06-11T14:36:06.417Z,35.23
2023-06-11T14:38:39.820Z,35.25
2023-06-11T14:41:11.646Z,35.56
2023-06-11T14:43:42.622Z,34.48
2023-06-11T14:46:10.617Z,33.88
2023-06-11T14:48:43.850Z,33.73
2023-06-11T14:51:32.031Z,34.78
2023-06-11T14:54:04.821Z,34.22
2023-06-11T14:56:41.745Z,33.68
2023-06-11T14:59:09.701Z,34.75
2023-06-11T15:01:37.854Z,35.23
2023-06-11T15:04:09.009Z,34.68
2023-06-11T15:06:42.439Z,35.03
2023-06-11T15:09:27.620Z,34.15
2023-06-11T15:12:01.844Z,34.08
2023-06-11T15:14:31.231Z,34.26
2023-06-11T15:16:59.746Z,34.63
2023-06-11T15:19:31.169Z,33.76
2023-06-11T15:22:09.327Z,35.01
2023-06-11T15:24:37.436Z,35.76
2023-06-11T15:27:07.806Z,34.75
2023-06-11T15:29:35.693Z,34.14
2023-06-11T15:32:06.779Z,33.14
2023-06-11T15:34:38.029Z,33.42
2023-06-11T15:37:09.556Z,33.92
2023-06-11T15:39:39.200Z,33.88
2023-06-11T15:42:22.728Z,33.23
2023-06-11T15:44:53.438Z,34.33
2023-06-11T15:47:26.965Z,34.17
2023-06-11T15:49:58.869Z,34.20
2023-06-11T15:52:27.022Z,34.77
2023-06-11T15:54:56.460Z,34.60
2023-06-11T15:57:28.455Z,34.28
2023-06-11T15:59:56.589Z,34.80
2023-06-11T16:02:25.304Z,34.35
2023-06-11T16:04:53.424Z,34.42
2023-06-11T16:07:27.061Z,33.88
2023-06-11T16:09:55.283Z,34.36
2023-06-11T16:12:23.133Z,34.90
2023-06-11T16:14:52.398Z,35.42
2023-06-11T16:17:24.220Z,35.39
2023-06-11T16:19:53.522Z,34.79
2023-06-11T16:22:22.529Z,34.56
2023-06-11T16:24:51.830Z,35.80
2023-06-11T16:27:20.961Z,35.53
2023-06-11T16:29:50.829Z,34.47
2023-06-11T16:32:25.990Z,34.55
2023-06-11T16:35:03.719Z,34.74
2023-06-11T16:37:32.459Z,33.66
2023-06-11T16:40:01.440Z,34.34
2023-06-11T16:42:30.565Z,34.47
2023-06-11T16:45:02.216Z,35.53
2023-06-11T16:47:34.592Z,35.73
2023-06-11T16:50:02.456Z,35.25
2023-06-11T16:52:38.921Z,35.03
2023-06-11T16:55:07.441Z,34.43
2023-06-11T16:57:35.420Z,34.62
2023-06-11T17:00:04.011Z,34.49
2023-06-11T17:02:36.141Z,35.40
2023-06-11T17:05:12.063Z,35.81
2023-06-11T17:07:45.313Z,35.60
2023-06-11T17:10:22.326Z,35.15
2023-06-11T17:12:51.060Z,35.06
2023-06-11T17:15:22.014Z,35.10
2023-06-11T17:17:52.987Z,34.98
2023-06-11T17:20:24.241Z,35.05
2023-06-11T17:22:54.375Z,36.02
2023-06-11T17:25:24.660Z,36.00
2023-06-11T17:27:52.674Z,35.56
2023-06-11T17:30:27.191Z,35.87
2023-06-11T17:32:56.860Z,36.31
2023-06-11T17:38:14.866Z,36.78
2023-06-11T17:40:42.835Z,37.41
2023-06-11T17:43:18.288Z,37.43
2023-06-11T17:45:48.732Z,37.60
2023-06-11T17:48:21.590Z,36.96
2023-06-11T17:50:50.705Z,36.80
2023-06-11T17:53:20.885Z,36.69
2023-06-11T17:55:51.339Z,37.76
2023-06-11T17:58:25.167Z,37.75
2023-06-11T18:00:58.679Z,37.71
2023-06-11T18:03:31.673Z,38.05
2023-06-11T18:05:59.581Z,38.14
2023-06-11T18:08:27.474Z,38.61
2023-06-11T18:10:59.743Z,38.67
2023-06-11T18:13:27.604Z,38.98
2023-06-11T18:15:58.276Z,38.70
2023-06-11T18:18:26.248Z,38.67
2023-06-11T18:21:00.342Z,38.40
2023-06-11T18:23:30.005Z,38.39
2023-06-11T18:25:57.886Z,38.15
2023-06-11T18:28:27.974Z,38.16
2023-06-11T18:31:00.519Z,38.64
2023-06-11T18:33:31.527Z,38.40
2023-06-11T18:36:01.022Z,38.66
2023-06-11T18:38:37.967Z,38.62
2023-06-11T18:41:08.829Z,38.64
2023-06-11T18:43:37.230Z,38.73
2023-06-11T18:46:10.367Z,38.87
2023-06-11T18:48:42.137Z,39.29
2023-06-11T18:51:11.607Z,39.35
2023-06-11T18:53:39.555Z,39.48
2023-06-11T18:56:07.694Z,39.29
2023-06-11T18:58:38.703Z,39.49
2023-06-11T19:01:21.479Z,39.64
2023-06-11T19:03:49.434Z,39.51
2023-06-11T19:06:20.386Z,39.26
2023-06-11T19:08:48.443Z,39.58
2023-06-11T19:11:17.535Z,39.60
2023-06-11T19:13:55.848Z,39.81
2023-06-11T19:16:23.740Z,40.39
2023-06-11T19:18:54.414Z,40.29
2023-06-11T19:21:24.912Z,39.89
2023-06-11T19:23:55.631Z,40.59
2023-06-11T19:26:23.484Z,40.65
2023-06-11T19:28:51.245Z,40.06
2023-06-11T19:31:30.990Z,39.85
2023-06-11T19:34:01.009Z,40.32
2023-06-11T19:36:33.635Z,40.16
2023-06-11T19:39:01.445Z,39.46
2023-06-11T19:41:33.311Z,39.78
2023-06-11T19:44:03.741Z,39.93
2023-06-11T19:46:35.343Z,40.02
2023-06-11T19:49:05.067Z,40.68
2023-06-11T19:51:36.706Z,40.66
2023-06-11T19:54:04.798Z,41.35
2023-06-11T19:56:37.649Z,41.71
2023-06-11T19:59:06.525Z,41.60
2023-06-11T20:01:34.425Z,41.73
2023-06-11T20:04:03.620Z,41.91
2023-06-11T20:06:34.941Z,42.90
2023-06-11T20:09:06.731Z,42.87
2023-06-11T20:11:34.815Z,43.32
2023-06-11T20:14:05.461Z,43.29
2023-06-11T20:16:36.298Z,43.10
2023-06-11T20:19:06.068Z,43.58
2023-06-11T20:21:36.057Z,43.76
2023-06-11T20:24:06.477Z,43.94
2023-06-11T20:26:42.683Z,43.79
2023-06-11T20:29:10.567Z,43.84
2023-06-11T20:31:44.677Z,44.10
2023-06-11T20:34:12.500Z,43.89
2023-06-11T20:36:42.807Z,44.07
2023-06-11T20:39:10.928Z,44.22
2023-06-11T20:41:41.163Z,43.54
2023-06-11T20:44:08.980Z,43.51
2023-06-11T20:46:39.956Z,44.20
2023-06-11T20:49:08.215Z,44.64
2023-06-11T20:51:55.636Z,44.35
2023-06-11T20:54:23.676Z,44.88
2023-06-11T20:56:51.957Z,44.33
2023-06-11T20:59:19.776Z,45.28
2023-06-11T21:01:49.494Z,45.18
2023-06-11T21:04:23.133Z,44.79
2023-06-11T21:06:50.935Z,45.29
2023-06-11T21:09:27.294Z,45.51
2023-06-11T21:11:58.864Z,44.87
2023-06-11T21:14:27.351Z,46.53
2023-06-11T21:17:02.849Z,46.68
2023-06-11T21:19:36.354Z,46.03
2023-06-11T21:22:04.474Z,46.32
2023-06-11T21:24:36.816Z,46.60
2023-06-11T21:27:08.561Z,46.41
2023-06-11T21:29:37.674Z,46.98
2023-06-11T21:32:06.804Z,46.55
2023-06-11T21:34:38.539Z,46.96
2023-06-11T21:37:07.249Z,47.30
2023-06-11T21:39:38.451Z,47.65
2023-06-11T21:42:09.929Z,48.16
2023-06-11T21:44:38.443Z,48.33
2023-06-11T21:47:09.806Z,47.96
2023-06-11T21:49:38.075Z,47.59
2023-06-11T21:52:09.642Z,48.33
2023-06-11T21:54:43.164Z,48.52
2023-06-11T21:57:11.475Z,48.43
2023-06-11T21:59:39.583Z,48.84
2023-06-11T22:02:10.986Z,48.87
2023-06-11T22:04:41.286Z,49.16
2023-06-11T22:07:10.177Z,49.26
2023-06-11T22:09:37.983Z,49.89
2023-06-11T22:12:14.834Z,50.50
2023-06-11T22:14:44.251Z,50.86
2023-06-11T22:17:12.086Z,50.99
2023-06-11T22:19:40.053Z,51.46
2023-06-11T22:22:11.581Z,51.13
2023-06-11T22:24:42.697Z,51.50
2023-06-11T22:27:13.373Z,51.03
2023-06-11T22:29:41.324Z,51.74
2023-06-11T22:32:10.534Z,53.00
2023-06-11T22:34:41.167Z,52.98
2023-06-11T22:37:10.096Z,52.19
2023-06-11T22:39:38.234Z,51.99
2023-06-11T22:42:08.519Z,52.39
2023-06-11T22:44:55.567Z,52.56
2023-06-11T22:47:28.966Z,51.85
2023-06-11T22:49:57.775Z,51.94
2023-06-11T22:52:39.319Z,53.11
2023-06-11T22:55:08.757Z,52.91
2023-06-11T22:57:39.747Z,52.92
2023-06-11T23:00:11.424Z,52.94
2023-06-11T23:02:39.634Z,53.09
2023-06-11T23:05:11.917Z,53.13
2023-06-11T23:07:42.948Z,51.87
2023-06-11T23:10:12.371Z,51.64
2023-06-11T23:12:40.464Z,51.91
2023-06-11T23:15:11.789Z,52.99
2023-06-11T23:17:40.708Z,52.67
2023-06-11T23:20:09.858Z,53.15
2023-06-11T23:22:40.373Z,53.50
2023-06-11T23:25:17.240Z,53.54
2023-06-11T23:27:45.438Z,53.29
2023-06-11T23:30:16.015Z,53.76
2023-06-11T23:32:44.461Z,53.57
2023-06-11T23:35:12.937Z,53.61
2023-06-11T23:37:45.994Z,53.13
2023-06-11T23:40:20.015Z,52.75
2023-06-11T23:42:53.426Z,52.23
2023-06-11T23:45:24.930Z,52.30
2023-06-11T23:47:54.401Z,51.87
2023-06-11T23:50:22.144Z,51.86
2023-06-11T23:52:52.887Z,51.44
2023-06-11T23:55:23.615Z,51.49
2023-06-11T23:58:02.478Z,51.78
